Time;durP1;ratioP1;P1;durP2;ratioP2;P2;SDS_P1;SDS_P2;PMS_P1;PMS_P2;Temp;Humidity;BMP_temperature;BMP_pressure;BME280_temperature;BME280_humidity;BME280_pressure;Samples;Min_cycle;Max_cycle;Signal;HPM_P1;HPM_P2
2023/08/21 00:02:04;;;;;;;6.38;2.20;;;22.40;89.10;;;;;;4947790;28;20424;-89
2023/08/21 00:04:30;;;;;;;8.13;1.98;;;22.30;89.30;;;;;;4938961;28;20508;-88
2023/08/21 00:06:56;;;;;;;6.65;1.60;;;22.30;89.50;;;;;;4941392;28;20028;-89
2023/08/21 00:09:21;;;;;;;4.55;1.48;;;22.30;89.90;;;;;;4939121;28;20032;-90
2023/08/21 00:11:47;;;;;;;5.70;1.48;;;22.20;89.80;;;;;;4944573;28;20035;-90
2023/08/21 00:14:13;;;;;;;8.30;1.77;;;22.10;90.00;;;;;;4951584;28;20497;-80
2023/08/21 00:16:40;;;;;;;3.40;1.55;;;22.10;90.00;;;;;;4934908;28;20027;-79
2023/08/21 00:19:06;;;;;;;4.00;1.70;;;22.00;90.00;;;;;;4942688;28;20395;-80
2023/08/21 00:21:31;;;;;;;7.70;1.60;;;22.00;90.20;;;;;;4940870;28;20149;-80
2023/08/21 00:23:57;;;;;;;12.10;1.75;;;22.00;90.20;;;;;;4938814;28;20028;-80
2023/08/21 00:26:23;;;;;;;9.80;1.67;;;22.00;90.20;;;;;;4942157;28;20480;-80
2023/08/21 00:28:48;;;;;;;7.55;1.77;;;21.90;90.30;;;;;;4940657;28;20035;-80
2023/08/21 00:31:14;;;;;;;5.70;1.70;;;21.90;90.30;;;;;;4940250;28;20463;-80
2023/08/21 00:33:39;;;;;;;6.72;1.80;;;21.90;90.20;;;;;;4940333;28;20031;-80
2023/08/21 00:36:05;;;;;;;4.97;1.48;;;21.90;90.20;;;;;;4940149;28;20620;-80
2023/08/21 00:38:31;;;;;;;5.43;1.35;;;21.90;90.30;;;;;;4938899;28;20035;-80
2023/08/21 00:40:57;;;;;;;3.95;1.65;;;21.80;90.30;;;;;;4940751;28;20462;-80
2023/08/21 00:43:25;;;;;;;6.63;1.58;;;21.80;90.30;;;;;;4936780;28;20024;-81
2023/08/21 00:45:51;;;;;;;4.60;1.60;;;21.80;90.20;;;;;;4934823;28;20040;-80
2023/08/21 00:48:17;;;;;;;8.05;1.60;;;21.90;90.50;;;;;;4941283;28;20023;-80
2023/08/21 00:50:46;;;;;;;4.88;1.90;;;21.90;90.50;;;;;;4939908;28;20035;-80
2023/08/21 00:53:12;;;;;;;6.22;1.67;;;21.80;90.60;;;;;;4935914;28;20035;-80
2023/08/21 00:55:39;;;;;;;3.88;2.10;;;21.80;90.50;;;;;;4938273;28;20024;-80
2023/08/21 00:58:05;;;;;;;11.68;1.90;;;21.80;90.40;;;;;;4937900;28;20027;-81
2023/08/21 01:00:31;;;;;;;9.02;1.92;;;21.80;90.50;;;;;;4939678;28;20062;-80
2023/08/21 01:02:56;;;;;;;5.47;1.98;;;21.80;90.50;;;;;;4938300;28;20684;-80
2023/08/21 01:05:23;;;;;;;7.95;1.88;;;21.70;90.50;;;;;;4942294;28;20039;-80
2023/08/21 01:08:05;;;;;;;5.78;1.63;;;21.70;90.50;;;;;;4938559;28;20860;-80
2023/08/21 01:10:36;;;;;;;8.10;1.88;;;21.70;90.60;;;;;;4937377;28;20027;-80
2023/08/21 01:13:14;;;;;;;7.95;1.65;;;21.70;90.80;;;;;;4952823;28;20404;-80
2023/08/21 01:15:39;;;;;;;4.50;1.60;;;21.70;90.80;;;;;;4944244;28;20055;-80
2023/08/21 01:18:10;;;;;;;10.93;2.08;;;21.70;90.70;;;;;;4942979;28;20059;-79
2023/08/21 01:20:36;;;;;;;8.00;2.10;;;21.70;90.60;;;;;;4940737;28;20123;-80
2023/08/21 01:23:06;;;;;;;11.20;2.38;;;21.70;90.70;;;;;;4944955;28;20187;-80
2023/08/21 01:25:32;;;;;;;6.60;2.08;;;21.70;90.80;;;;;;4949397;28;20040;-78
2023/08/21 01:28:00;;;;;;;3.42;1.92;;;21.60;91.00;;;;;;4937500;28;20487;-81
2023/08/21 01:30:29;;;;;;;5.03;1.75;;;21.60;90.80;;;;;;4939542;28;20031;-79
2023/08/21 01:33:10;;;;;;;5.40;1.70;;;21.60;91.20;;;;;;4941372;28;20034;-80
2023/08/21 01:35:36;;;;;;;7.15;1.67;;;21.60;91.00;;;;;;4939241;28;20101;-79
2023/08/21 01:38:03;;;;;;;7.10;2.08;;;21.60;91.40;;;;;;4940046;28;20038;-80
2023/08/21 01:40:29;;;;;;;5.90;1.58;;;21.50;91.20;;;;;;4937917;28;20036;-80
2023/08/21 01:42:55;;;;;;;5.20;1.58;;;21.50;91.10;;;;;;4943819;28;20110;-80
2023/08/21 01:45:21;;;;;;;5.47;1.63;;;21.50;91.50;;;;;;4939411;28;20031;-80
2023/08/21 01:47:47;;;;;;;6.25;1.70;;;21.40;91.50;;;;;;4938183;28;20165;-80
2023/08/21 01:50:13;;;;;;;6.15;1.85;;;21.40;91.60;;;;;;4937848;28;20074;-80
2023/08/21 01:52:38;;;;;;;8.20;1.58;;;21.30;91.70;;;;;;4934536;28;20019;-80
2023/08/21 01:55:07;;;;;;;8.85;1.60;;;21.30;91.50;;;;;;4937864;28;20035;-80
2023/08/21 01:57:33;;;;;;;6.50;1.40;;;21.40;91.70;;;;;;4937938;28;20031;-79
2023/08/21 01:59:59;;;;;;;5.57;1.65;;;21.30;92.00;;;;;;4945031;28;20026;-80
2023/08/21 02:02:24;;;;;;;3.58;1.50;;;21.30;92.00;;;;;;4937224;28;20688;-80
2023/08/21 02:04:50;;;;;;;6.18;1.83;;;21.40;91.90;;;;;;4937539;28;20028;-80
2023/08/21 02:07:15;;;;;;;3.95;1.70;;;21.40;92.30;;;;;;4939046;28;20035;-79
2023/08/21 02:09:41;;;;;;;5.45;1.80;;;21.40;92.10;;;;;;4932785;28;20031;-80
2023/08/21 02:12:07;;;;;;;5.50;1.90;;;21.40;92.00;;;;;;4944550;28;20023;-80
2023/08/21 02:14:33;;;;;;;11.77;2.00;;;21.40;92.00;;;;;;4945022;28;20039;-80
2023/08/21 02:16:58;;;;;;;9.18;1.88;;;21.40;92.40;;;;;;4937031;28;20086;-80
2023/08/21 02:19:24;;;;;;;4.65;1.83;;;21.30;92.30;;;;;;4936130;28;20652;-80
2023/08/21 02:21:49;;;;;;;4.95;1.63;;;21.30;92.10;;;;;;4932480;28;20040;-81
2023/08/21 02:24:15;;;;;;;6.18;1.95;;;21.20;92.20;;;;;;4943597;28;20130;-80
2023/08/21 02:26:42;;;;;;;9.77;1.98;;;21.10;92.20;;;;;;4937252;28;20043;-83
2023/08/21 02:29:08;;;;;;;6.38;1.90;;;21.10;92.00;;;;;;4936881;28;20027;-80
2023/08/21 02:31:33;;;;;;;6.45;2.17;;;21.10;92.00;;;;;;4941254;28;20466;-80
2023/08/21 02:33:59;;;;;;;9.07;1.92;;;21.10;91.80;;;;;;4938173;28;20468;-89
2023/08/21 02:36:24;;;;;;;6.90;2.05;;;21.10;91.80;;;;;;4941145;28;20019;-90
2023/08/21 02:38:50;;;;;;;7.32;1.90;;;21.10;91.90;;;;;;4942417;28;20078;-89
2023/08/21 02:41:18;;;;;;;10.13;2.10;;;21.10;91.80;;;;;;4942997;28;20031;-90
2023/08/21 02:43:43;;;;;;;6.22;1.98;;;21.20;91.70;;;;;;4946190;28;20483;-90
2023/08/21 02:46:09;;;;;;;3.13;2.10;;;21.20;91.70;;;;;;4946837;28;20093;-90
2023/08/21 02:48:34;;;;;;;6.05;1.80;;;21.20;91.60;;;;;;4941010;28;20122;-91
2023/08/21 02:51:02;;;;;;;5.28;1.85;;;21.10;91.80;;;;;;4947027;28;20024;-89
2023/08/21 02:53:28;;;;;;;10.40;1.88;;;21.10;91.80;;;;;;4941234;28;20106;-90
2023/08/21 02:55:54;;;;;;;6.35;1.75;;;21.10;92.10;;;;;;4948147;28;20170;-89
2023/08/21 02:58:19;;;;;;;4.43;1.65;;;21.00;92.30;;;;;;4936730;28;20016;-81
2023/08/21 03:00:45;;;;;;;10.88;2.17;;;21.00;92.40;;;;;;4945810;28;20071;-88
2023/08/21 03:03:11;;;;;;;2.45;1.70;;;20.90;92.50;;;;;;4937855;28;20451;-80
2023/08/21 03:05:37;;;;;;;5.47;1.75;;;20.80;92.70;;;;;;4940951;28;20164;-79
2023/08/21 03:08:03;;;;;;;6.40;2.00;;;20.80;92.60;;;;;;4934903;28;20107;-79
2023/08/21 03:10:33;;;;;;;6.60;2.30;;;20.80;92.50;;;;;;4933970;28;20027;-80
2023/08/21 03:12:59;;;;;;;11.95;1.88;;;20.80;92.50;;;;;;4935850;28;20032;-81
2023/08/21 03:15:24;;;;;;;8.02;1.90;;;20.80;92.60;;;;;;4936956;28;20029;-81
2023/08/21 03:17:50;;;;;;;10.65;2.28;;;20.80;92.70;;;;;;4935292;29;20365;-80
2023/08/21 03:20:17;;;;;;;16.02;2.47;;;20.80;92.60;;;;;;4932784;28;20024;-80
2023/08/21 03:22:43;;;;;;;5.22;2.00;;;20.80;92.70;;;;;;4932684;28;20058;-80
2023/08/21 03:25:08;;;;;;;8.88;2.10;;;20.80;92.70;;;;;;4939803;28;20585;-80
2023/08/21 03:27:38;;;;;;;8.98;2.47;;;20.90;92.60;;;;;;4934181;28;20555;-79
2023/08/21 03:30:07;;;;;;;7.60;2.40;;;21.00;92.50;;;;;;4943212;28;20035;-80
2023/08/21 03:32:33;;;;;;;6.22;2.33;;;21.00;92.40;;;;;;4932599;28;20548;-80
2023/08/21 03:35:01;;;;;;;5.30;2.10;;;21.00;92.50;;;;;;4937104;28;20039;-80
2023/08/21 03:37:27;;;;;;;9.70;2.22;;;21.10;92.40;;;;;;4936674;28;20027;-83
2023/08/21 03:39:53;;;;;;;9.48;2.30;;;21.10;92.40;;;;;;4938083;28;20030;-81
2023/08/21 03:42:18;;;;;;;5.50;2.20;;;21.00;92.40;;;;;;4938977;28;20027;-80
2023/08/21 03:44:44;;;;;;;8.93;2.53;;;21.00;92.70;;;;;;4937878;28;20035;-81
2023/08/21 03:47:09;;;;;;;7.35;2.25;;;21.00;92.80;;;;;;4937003;28;20086;-79
2023/08/21 03:49:36;;;;;;;8.95;2.03;;;21.00;92.80;;;;;;4943280;28;20043;-82
2023/08/21 03:52:02;;;;;;;5.70;1.77;;;20.90;92.80;;;;;;4933423;28;20223;-79
2023/08/21 03:54:27;;;;;;;7.38;2.20;;;20.90;92.80;;;;;;4934689;28;20102;-80
2023/08/21 03:56:53;;;;;;;9.80;2.22;;;20.90;92.90;;;;;;4931720;28;20063;-82
2023/08/21 03:59:18;;;;;;;3.80;1.70;;;20.90;93.00;;;;;;4933534;28;20023;-80
2023/08/21 04:01:44;;;;;;;8.18;2.15;;;20.90;92.80;;;;;;4941105;28;20118;-82
2023/08/21 04:04:09;;;;;;;11.13;2.03;;;20.80;92.90;;;;;;4935557;28;20114;-80
2023/08/21 04:06:35;;;;;;;7.97;2.72;;;20.80;92.70;;;;;;4932950;28;20043;-80
2023/08/21 04:09:01;;;;;;;6.97;2.40;;;20.70;92.90;;;;;;4933510;28;20050;-80
2023/08/21 04:11:28;;;;;;;10.00;2.45;;;20.80;93.20;;;;;;4940576;28;20843;-81
2023/08/21 04:13:54;;;;;;;9.88;2.38;;;20.70;93.20;;;;;;4933359;28;20472;-81
2023/08/21 04:16:21;;;;;;;6.95;2.38;;;20.70;93.30;;;;;;4932347;28;20049;-80
2023/08/21 04:18:46;;;;;;;6.13;1.92;;;20.70;93.00;;;;;;4941349;28;20038;-81
2023/08/21 04:21:12;;;;;;;8.52;2.60;;;20.70;93.00;;;;;;4937942;28;20403;-81
2023/08/21 04:23:38;;;;;;;5.28;1.73;;;20.70;93.20;;;;;;4936331;28;20103;-81
2023/08/21 04:26:04;;;;;;;5.40;1.83;;;20.70;93.10;;;;;;4934965;28;20448;-80
2023/08/21 04:28:33;;;;;;;8.60;2.15;;;20.60;93.30;;;;;;4934685;28;20023;-80
2023/08/21 04:30:58;;;;;;;7.60;2.20;;;20.60;93.30;;;;;;4934723;28;20047;-79
2023/08/21 04:33:28;;;;;;;8.55;2.40;;;20.50;93.50;;;;;;4933045;28;20110;-81
2023/08/21 04:35:54;;;;;;;11.77;2.42;;;20.40;93.70;;;;;;4936615;28;20035;-80
2023/08/21 04:38:20;;;;;;;11.00;2.55;;;20.40;94.00;;;;;;4936380;28;20027;-83
2023/08/21 04:40:45;;;;;;;19.90;2.38;;;20.40;93.80;;;;;;4932820;28;20038;-80
2023/08/21 04:43:11;;;;;;;8.10;2.50;;;20.40;93.70;;;;;;4940662;28;20527;-80
2023/08/21 04:45:37;;;;;;;12.00;2.45;;;20.40;93.90;;;;;;4936760;28;20118;-80
2023/08/21 04:48:04;;;;;;;6.95;2.55;;;20.30;93.70;;;;;;4940506;28;20502;-80
2023/08/21 04:50:30;;;;;;;10.35;3.17;;;20.30;93.90;;;;;;4936025;28;20514;-79
2023/08/21 04:52:56;;;;;;;4.88;2.30;;;20.30;94.00;;;;;;4929898;28;20064;-80
2023/08/21 04:55:22;;;;;;;5.40;3.17;;;20.20;94.10;;;;;;4935254;28;20024;-79
2023/08/21 04:57:49;;;;;;;6.97;3.30;;;20.20;94.20;;;;;;4937291;28;20031;-79
2023/08/21 05:00:15;;;;;;;11.38;2.95;;;20.10;94.30;;;;;;4933863;28;20110;-81
2023/08/21 05:02:41;;;;;;;5.03;2.42;;;20.10;94.60;;;;;;4938711;28;20744;-79
2023/08/21 05:05:08;;;;;;;7.53;2.50;;;20.00;94.80;;;;;;4933171;28;20031;-81
2023/08/21 05:07:34;;;;;;;10.80;2.65;;;20.10;95.10;;;;;;4934628;28;20062;-80
2023/08/21 05:10:00;;;;;;;4.95;2.33;;;20.00;95.20;;;;;;4938187;28;20038;-80
2023/08/21 05:12:26;;;;;;;7.70;2.92;;;19.90;95.40;;;;;;4940408;28;20083;-80
2023/08/21 05:14:52;;;;;;;6.80;2.70;;;19.90;95.50;;;;;;4937336;28;20396;-80
2023/08/21 05:17:17;;;;;;;14.30;3.15;;;20.00;95.60;;;;;;4942834;28;20024;-81
2023/08/21 05:19:43;;;;;;;5.97;3.03;;;20.00;95.60;;;;;;4938591;28;20445;-80
2023/08/21 05:22:08;;;;;;;8.30;3.45;;;20.00;95.60;;;;;;4932636;28;20031;-81
2023/08/21 05:24:34;;;;;;;8.82;3.10;;;20.10;95.70;;;;;;4941089;28;20031;-79
2023/08/21 05:26:59;;;;;;;8.52;3.25;;;20.10;95.70;;;;;;4938751;28;20054;-80
2023/08/21 05:29:25;;;;;;;11.13;3.90;;;20.00;95.90;;;;;;4942961;28;20403;-80
2023/08/21 05:31:51;;;;;;;7.03;3.22;;;19.90;96.40;;;;;;4939052;28;20034;-79
2023/08/21 05:34:19;;;;;;;14.82;4.20;;;19.80;96.40;;;;;;4936661;28;20067;-80
2023/08/21 05:36:44;;;;;;;8.13;3.65;;;19.80;96.50;;;;;;4935858;28;20023;-82
2023/08/21 05:39:10;;;;;;;11.23;4.13;;;19.70;96.80;;;;;;4934465;28;20038;-81
2023/08/21 05:41:36;;;;;;;6.78;3.22;;;19.80;96.80;;;;;;4933231;28;20027;-80
2023/08/21 05:44:02;;;;;;;9.00;3.97;;;19.80;96.80;;;;;;4940155;28;20043;-79
2023/08/21 05:46:30;;;;;;;13.85;4.05;;;19.90;96.70;;;;;;4932247;28;20039;-79
2023/08/21 05:48:55;;;;;;;9.77;3.80;;;20.10;96.40;;;;;;4934519;28;20129;-79
2023/08/21 05:51:21;;;;;;;10.40;3.35;;;20.20;95.90;;;;;;4941395;28;20031;-80
2023/08/21 05:53:47;;;;;;;11.48;3.97;;;20.40;95.60;;;;;;4936328;28;20027;-79
2023/08/21 05:56:13;;;;;;;13.07;4.05;;;20.60;95.50;;;;;;4935136;28;20391;-80
2023/08/21 05:58:38;;;;;;;14.68;3.90;;;20.70;95.10;;;;;;4935929;28;20032;-80
2023/08/21 06:01:04;;;;;;;18.10;4.70;;;20.70;94.80;;;;;;4936560;28;20019;-80
2023/08/21 06:03:29;;;;;;;13.65;4.65;;;20.80;94.60;;;;;;4936285;28;20437;-80
2023/08/21 06:05:58;;;;;;;16.10;4.22;;;21.00;94.50;;;;;;4936793;28;20039;-80
2023/08/21 06:08:23;;;;;;;11.45;4.07;;;21.10;94.10;;;;;;4942731;28;20031;-80
2023/08/21 06:10:52;;;;;;;10.30;3.45;;;21.20;93.60;;;;;;4937545;28;20019;-80
2023/08/21 06:13:18;;;;;;;9.88;3.47;;;21.30;93.70;;;;;;4937298;28;20028;-79
2023/08/21 06:15:47;;;;;;;6.22;3.08;;;21.40;93.30;;;;;;4941353;28;20050;-80
2023/08/21 06:18:14;;;;;;;12.13;3.33;;;21.50;93.40;;;;;;4934939;28;20027;-79
2023/08/21 06:20:43;;;;;;;12.27;2.67;;;21.60;92.60;;;;;;4937456;28;20023;-80
2023/08/21 06:23:09;;;;;;;9.90;3.13;;;21.80;92.40;;;;;;4937447;28;20038;-79
2023/08/21 06:25:34;;;;;;;17.65;3.35;;;21.90;92.30;;;;;;4936688;28;20507;-80
2023/08/21 06:28:00;;;;;;;13.07;3.15;;;22.10;92.10;;;;;;4936439;28;20065;-80
2023/08/21 06:30:28;;;;;;;7.25;3.15;;;22.20;91.90;;;;;;4938646;28;20048;-80
2023/08/21 06:32:55;;;;;;;8.57;2.60;;;22.40;91.80;;;;;;4934448;28;20629;-80
2023/08/21 06:35:20;;;;;;;10.20;2.65;;;22.50;91.30;;;;;;4956059;28;21289;-80
2023/08/21 06:37:46;;;;;;;11.07;3.17;;;22.50;90.80;;;;;;4952497;28;20707;-89
2023/08/21 06:40:12;;;;;;;5.65;2.03;;;22.60;90.70;;;;;;4941139;28;20031;-80
2023/08/21 06:42:37;;;;;;;10.35;2.97;;;22.70;90.10;;;;;;4942261;28;20020;-80
2023/08/21 06:45:05;;;;;;;10.57;2.05;;;22.70;90.40;;;;;;4939869;28;20054;-80
2023/08/21 06:47:31;;;;;;;8.13;2.50;;;22.70;90.50;;;;;;4938387;28;20782;-80
2023/08/21 06:49:57;;;;;;;9.02;1.70;;;22.80;90.20;;;;;;4931731;28;20034;-80
2023/08/21 06:52:23;;;;;;;13.65;2.20;;;22.90;89.60;;;;;;4934488;28;20031;-80
2023/08/21 06:54:49;;;;;;;10.18;2.10;;;23.00;88.80;;;;;;4936540;28;20526;-80
2023/08/21 06:57:14;;;;;;;12.45;2.28;;;23.10;88.90;;;;;;4934921;28;20568;-81
2023/08/21 06:59:40;;;;;;;11.45;2.20;;;23.20;89.20;;;;;;4938712;28;20503;-80
2023/08/21 07:02:05;;;;;;;5.05;1.98;;;23.20;89.00;;;;;;4942698;28;20028;-80
2023/08/21 07:04:32;;;;;;;4.90;1.50;;;23.00;89.50;;;;;;4937671;28;20023;-79
2023/08/21 07:06:58;;;;;;;4.10;1.80;;;23.00;89.60;;;;;;4939450;28;20507;-79
2023/08/21 07:09:24;;;;;;;9.15;1.77;;;22.90;90.60;;;;;;4938103;28;20023;-80
2023/08/21 07:11:49;;;;;;;4.90;1.92;;;22.80;90.50;;;;;;4936684;28;20110;-80
2023/08/21 07:14:16;;;;;;;8.68;2.00;;;22.90;90.40;;;;;;4938872;28;20037;-80
2023/08/21 07:16:43;;;;;;;5.35;1.90;;;23.00;90.20;;;;;;4938686;28;20393;-82
2023/08/21 07:19:08;;;;;;;8.63;2.40;;;23.10;90.10;;;;;;4939757;28;20023;-89
2023/08/21 07:21:36;;;;;;;7.95;2.08;;;23.10;90.50;;;;;;4943809;28;20050;-88
2023/08/21 07:24:02;;;;;;;4.40;2.22;;;23.20;90.80;;;;;;4941329;28;20127;-89
2023/08/21 07:26:29;;;;;;;9.18;2.53;;;23.30;90.50;;;;;;4945257;28;20146;-90
2023/08/21 07:28:54;;;;;;;12.55;2.53;;;23.40;90.00;;;;;;4943479;28;20023;-88
2023/08/21 07:31:20;;;;;;;10.68;2.72;;;23.50;88.70;;;;;;4939407;28;20020;-89
2023/08/21 07:33:46;;;;;;;9.35;2.47;;;23.50;89.30;;;;;;4946461;28;20064;-88
2023/08/21 07:36:16;;;;;;;5.63;2.45;;;23.50;88.80;;;;;;4941837;28;20027;-89
2023/08/21 07:38:45;;;;;;;4.50;2.00;;;23.50;89.20;;;;;;4939051;28;20027;-86
2023/08/21 07:41:12;;;;;;;10.02;2.80;;;23.50;89.50;;;;;;4938091;28;20047;-82
2023/08/21 07:43:40;;;;;;;81.40;31.10;;;23.70;88.80;;;;;;4938665;28;20041;-81
2023/08/21 07:46:07;;;;;;;8.65;4.13;;;23.70;89.00;;;;;;4936091;28;20038;-87
2023/08/21 07:48:33;;;;;;;12.25;2.97;;;23.70;88.20;;;;;;4941070;28;20029;-86
2023/08/21 07:51:02;;;;;;;6.93;2.10;;;23.90;88.70;;;;;;4941631;28;20122;-87
2023/08/21 07:53:28;;;;;;;10.60;2.85;;;24.00;87.70;;;;;;4940367;28;20023;-87
2023/08/21 07:55:54;;;;;;;8.15;1.90;;;24.10;88.80;;;;;;4941219;28;20143;-86
2023/08/21 07:58:19;;;;;;;7.93;2.15;;;24.20;87.50;;;;;;4943746;28;20106;-85
2023/08/21 08:00:45;;;;;;;7.82;2.10;;;24.30;86.70;;;;;;4935374;28;20034;-78
2023/08/21 08:03:14;;;;;;;8.70;2.42;;;24.30;86.30;;;;;;4935590;28;20523;-79
2023/08/21 08:05:40;;;;;;;9.63;2.92;;;24.40;87.80;;;;;;4936355;28;20555;-78
2023/08/21 08:08:05;;;;;;;7.95;2.30;;;24.50;85.70;;;;;;4932685;28;20042;-78
2023/08/21 08:10:31;;;;;;;10.20;2.40;;;24.50;83.80;;;;;;4939297;28;20066;-80
2023/08/21 08:12:57;;;;;;;6.47;2.10;;;24.60;84.70;;;;;;4937391;28;20027;-80
2023/08/21 08:15:23;;;;;;;8.77;2.08;;;24.50;84.40;;;;;;4936346;28;20034;-79
2023/08/21 08:17:52;;;;;;;8.77;2.25;;;24.60;85.30;;;;;;4937268;28;20505;-80
2023/08/21 08:20:19;;;;;;;6.13;1.73;;;24.60;85.10;;;;;;4936686;28;20509;-81
2023/08/21 08:22:44;;;;;;;7.32;1.92;;;24.60;85.00;;;;;;4933865;28;20059;-81
2023/08/21 08:25:10;;;;;;;7.93;1.65;;;24.70;84.70;;;;;;4935376;28;20114;-80
2023/08/21 08:27:36;;;;;;;10.57;2.05;;;24.80;84.40;;;;;;4938450;28;20053;-80
2023/08/21 08:30:03;;;;;;;12.95;1.83;;;24.90;84.70;;;;;;4942076;28;20108;-81
2023/08/21 08:32:29;;;;;;;13.27;2.38;;;25.10;82.60;;;;;;4936311;28;20513;-79
2023/08/21 08:34:57;;;;;;;10.68;2.28;;;25.20;81.60;;;;;;4934775;28;20055;-80
2023/08/21 08:37:23;;;;;;;129.27;58.35;;;25.30;82.00;;;;;;4932566;28;20178;-79
2023/08/21 08:39:49;;;;;;;298.80;116.15;;;25.40;81.80;;;;;;4930926;28;20036;-80
2023/08/21 08:42:15;;;;;;;9.07;1.67;;;25.20;81.10;;;;;;4942446;28;20032;-80
2023/08/21 08:44:45;;;;;;;10.38;1.80;;;25.30;81.10;;;;;;4938202;28;20050;-81
2023/08/21 08:47:11;;;;;;;6.00;1.80;;;25.20;81.80;;;;;;4937503;28;20038;-79
2023/08/21 08:49:38;;;;;;;10.95;1.90;;;25.30;82.30;;;;;;4938345;28;20038;-80
2023/08/21 08:52:04;;;;;;;9.07;2.40;;;25.50;81.70;;;;;;4943050;28;20035;-79
2023/08/21 08:54:30;;;;;;;6.82;2.03;;;25.70;80.00;;;;;;4938575;28;20035;-79
2023/08/21 08:56:57;;;;;;;8.77;1.55;;;25.90;79.00;;;;;;4938098;28;20168;-78
2023/08/21 08:59:25;;;;;;;7.28;1.83;;;26.10;79.10;;;;;;4942898;28;20448;-79
2023/08/21 09:01:51;;;;;;;4.72;1.90;;;26.40;79.80;;;;;;4942752;28;20023;-78
2023/08/21 09:04:17;;;;;;;4.20;1.63;;;26.60;77.40;;;;;;4935493;28;20728;-79
2023/08/21 09:06:42;;;;;;;9.23;2.40;;;26.70;76.50;;;;;;4939165;28;20503;-79
2023/08/21 09:09:12;;;;;;;4.50;1.90;;;27.10;76.50;;;;;;4938710;28;20036;-78
2023/08/21 09:11:43;;;;;;;9.25;2.10;;;27.30;75.30;;;;;;4939750;28;20035;-78
2023/08/21 09:14:10;;;;;;;6.40;1.65;;;27.60;73.70;;;;;;4943116;28;20095;-78
2023/08/21 09:16:36;;;;;;;51.95;19.40;;;27.80;72.60;;;;;;4937210;28;20447;-78
2023/08/21 09:19:01;;;;;;;6.70;2.30;;;28.00;72.00;;;;;;4940206;28;20089;-78
2023/08/21 09:21:28;;;;;;;6.80;2.10;;;28.20;70.40;;;;;;4934312;28;20031;-77
2023/08/21 09:24:04;;;;;;;3.97;1.60;;;28.20;69.60;;;;;;4936750;28;20971;-80
2023/08/21 09:26:32;;;;;;;7.13;2.15;;;28.40;69.50;;;;;;4940822;28;20129;-80
2023/08/21 09:29:00;;;;;;;5.50;2.00;;;28.20;70.20;;;;;;4939766;28;20536;-79
2023/08/21 09:31:33;;;;;;;4.10;1.80;;;28.30;71.20;;;;;;4937918;28;20043;-79
2023/08/21 09:34:00;;;;;;;6.10;1.77;;;28.10;70.70;;;;;;4938043;28;20034;-79
2023/08/21 09:36:28;;;;;;;5.70;2.35;;;28.10;71.30;;;;;;4936763;28;20047;-80
2023/08/21 09:38:54;;;;;;;7.95;2.13;;;28.20;69.60;;;;;;4940097;28;20181;-79
2023/08/21 09:41:23;;;;;;;4.25;1.77;;;28.50;71.50;;;;;;4943551;28;20027;-87
2023/08/21 09:43:49;;;;;;;6.60;1.95;;;28.60;67.80;;;;;;4944719;28;20086;-88
2023/08/21 09:46:24;;;;;;;9.75;2.13;;;28.60;68.00;;;;;;4939988;28;20048;-86
2023/08/21 09:48:51;;;;;;;4.43;1.90;;;28.80;67.60;;;;;;4937926;28;20115;-79
2023/08/21 09:51:20;;;;;;;6.13;1.88;;;28.50;67.90;;;;;;4942360;28;20499;-87
2023/08/21 09:53:50;;;;;;;8.80;2.20;;;28.50;68.80;;;;;;4954080;28;20028;-87
2023/08/21 09:56:18;;;;;;;5.53;1.80;;;28.50;67.70;;;;;;4935524;28;20031;-86
2023/08/21 09:58:47;;;;;;;4.47;1.83;;;28.50;68.20;;;;;;4938319;28;20066;-87
2023/08/21 10:01:15;;;;;;;7.75;2.00;;;28.40;67.80;;;;;;4940394;28;20420;-88
2023/08/21 10:03:42;;;;;;;3.58;2.40;;;28.50;69.40;;;;;;4943536;28;20027;-87
2023/08/21 10:06:12;;;;;;;7.00;2.30;;;28.60;68.40;;;;;;4940291;28;20759;-88
2023/08/21 10:08:41;;;;;;;9.00;2.30;;;28.20;68.30;;;;;;4946204;28;20027;-85
2023/08/21 10:11:10;;;;;;;7.07;2.03;;;28.30;69.80;;;;;;4943698;28;20512;-88
2023/08/21 10:13:38;;;;;;;8.48;2.50;;;28.40;68.70;;;;;;4953630;28;20098;-88
2023/08/21 10:16:05;;;;;;;7.03;2.35;;;28.70;67.30;;;;;;4940736;28;20318;-88
2023/08/21 10:18:35;;;;;;;9.23;2.13;;;29.00;66.60;;;;;;4943206;28;20062;-88
2023/08/21 10:21:21;;;;;;;7.43;2.40;;;29.50;66.70;;;;;;4941309;28;20574;-87
2023/08/21 10:23:48;;;;;;;4.47;2.13;;;30.00;64.20;;;;;;4942024;28;20391;-88
2023/08/21 10:26:14;;;;;;;6.43;2.15;;;30.30;62.80;;;;;;4942300;28;20550;-88
2023/08/21 10:28:52;;;;;;;8.73;2.25;;;30.30;61.50;;;;;;4950223;28;20078;-88
2023/08/21 10:31:40;;;;;;;6.45;2.25;;;30.30;63.40;;;;;;4940133;28;20027;-84
2023/08/21 10:34:08;;;;;;;4.28;1.83;;;30.20;63.00;;;;;;4942416;28;20052;-88
2023/08/21 10:37:00;;;;;;;8.48;2.60;;;30.10;66.10;;;;;;4947937;28;20071;-87
2023/08/21 10:39:26;;;;;;;7.07;2.00;;;30.10;66.70;;;;;;4940706;28;20035;-87
2023/08/21 10:42:09;;;;;;;6.32;2.75;;;30.00;65.10;;;;;;4948588;28;20027;-87
2023/08/21 10:45:05;;;;;;;6.20;2.60;;;29.90;65.10;;;;;;4943202;28;20044;-88
2023/08/21 10:47:34;;;;;;;9.95;3.55;;;30.30;67.00;;;;;;4962051;28;20035;-86
2023/08/21 10:50:05;;;;;;;9.00;2.58;;;30.40;67.20;;;;;;4950021;28;20036;-88
2023/08/21 10:52:35;;;;;;;4.22;2.38;;;30.40;63.20;;;;;;4959623;28;20035;-87
2023/08/21 10:55:03;;;;;;;8.55;2.63;;;30.70;63.80;;;;;;4942512;28;20472;-87
2023/08/21 10:57:33;;;;;;;5.57;2.67;;;31.20;63.20;;;;;;4957697;28;20030;-88
2023/08/21 11:00:00;;;;;;;7.70;2.67;;;31.40;61.80;;;;;;4944426;28;20503;-86
2023/08/21 11:02:30;;;;;;;8.60;2.75;;;31.60;61.50;;;;;;4948133;28;20068;-87
2023/08/21 11:04:55;;;;;;;7.88;1.95;;;31.50;60.20;;;;;;4939492;28;20038;-87
2023/08/21 11:07:22;;;;;;;4.93;2.20;;;31.60;60.70;;;;;;4942984;28;20036;-88
2023/08/21 11:09:50;;;;;;;6.10;2.20;;;31.30;59.50;;;;;;4941937;28;20028;-88
2023/08/21 11:12:18;;;;;;;7.55;2.42;;;31.20;60.40;;;;;;4945530;28;20020;-88
2023/08/21 11:14:44;;;;;;;4.88;2.10;;;31.00;61.50;;;;;;4940876;29;20043;-87
2023/08/21 11:17:10;;;;;;;8.82;2.08;;;31.20;62.80;;;;;;4936591;29;20437;-88
2023/08/21 11:19:39;;;;;;;6.93;2.80;;;31.40;59.60;;;;;;4937010;29;20039;-87
2023/08/21 11:22:08;;;;;;;4.85;2.25;;;31.50;59.20;;;;;;4938586;29;20095;-86
2023/08/21 11:24:50;;;;;;;5.03;2.05;;;31.60;62.00;;;;;;4939867;29;20019;-87
2023/08/21 11:27:18;;;;;;;4.22;2.28;;;31.80;61.40;;;;;;4938165;29;20119;-86
2023/08/21 11:29:45;;;;;;;5.40;2.40;;;31.60;60.20;;;;;;4945173;29;20106;-86
2023/08/21 11:32:21;;;;;;;4.78;2.20;;;31.90;59.80;;;;;;4960730;28;20028;-84
2023/08/21 11:34:56;;;;;;;7.50;2.03;;;31.90;59.50;;;;;;4958616;28;20008;-86
2023/08/21 11:37:24;;;;;;;5.38;2.22;;;31.80;59.60;;;;;;4944142;29;20034;-86
2023/08/21 11:39:55;;;;;;;5.53;1.98;;;31.60;59.60;;;;;;4941525;29;20019;-85
2023/08/21 11:42:23;;;;;;;5.43;1.90;;;31.60;59.10;;;;;;4934681;29;20023;-88
2023/08/21 11:44:52;;;;;;;3.50;2.15;;;31.30;60.20;;;;;;4936462;29;20130;-89
2023/08/21 11:47:20;;;;;;;4.60;2.03;;;31.30;59.80;;;;;;4934336;29;20047;-88
2023/08/21 11:49:48;;;;;;;8.15;2.28;;;31.00;60.10;;;;;;4934212;29;20020;-86
2023/08/21 11:52:26;;;;;;;5.07;2.05;;;31.20;60.40;;;;;;4937301;29;20049;-88
2023/08/21 11:54:54;;;;;;;4.50;2.45;;;31.30;58.70;;;;;;4940733;29;20027;-89
2023/08/21 11:57:21;;;;;;;6.30;2.50;;;31.40;59.90;;;;;;4936025;29;20027;-88
2023/08/21 11:59:51;;;;;;;8.07;1.80;;;31.50;58.40;;;;;;4939376;29;20035;-88
2023/08/21 12:02:19;;;;;;;3.63;1.88;;;31.30;56.30;;;;;;4929194;29;20102;-87
2023/08/21 12:04:44;;;;;;;7.78;2.20;;;31.20;58.10;;;;;;4933341;29;20020;-88
2023/08/21 12:07:11;;;;;;;9.80;2.10;;;31.00;57.30;;;;;;4937457;29;20396;-88
2023/08/21 12:09:37;;;;;;;5.07;2.10;;;31.20;58.30;;;;;;4934017;29;20051;-87
2023/08/21 12:12:03;;;;;;;4.10;2.03;;;31.50;59.80;;;;;;4934710;29;20023;-86
2023/08/21 12:14:29;;;;;;;6.72;2.30;;;31.60;58.80;;;;;;4938234;29;20066;-87
2023/08/21 12:16:55;;;;;;;6.50;2.72;;;31.80;61.70;;;;;;4956020;28;20054;-85
2023/08/21 12:19:23;;;;;;;6.15;2.42;;;32.00;59.40;;;;;;4949457;28;20017;-86
2023/08/21 12:21:48;;;;;;;7.10;2.50;;;31.90;59.50;;;;;;4947468;29;20016;-87
2023/08/21 12:24:14;;;;;;;5.75;1.83;;;31.80;59.20;;;;;;4941659;29;20620;-87
2023/08/21 12:26:40;;;;;;;12.68;2.40;;;31.30;59.20;;;;;;4940328;29;20140;-87
2023/08/21 12:29:05;;;;;;;6.70;2.70;;;31.10;61.40;;;;;;4940490;29;20035;-85
2023/08/21 12:31:31;;;;;;;5.63;2.55;;;31.30;61.60;;;;;;4944184;29;20050;-85
2023/08/21 12:33:57;;;;;;;4.68;2.45;;;31.60;59.60;;;;;;4940610;29;20114;-87
2023/08/21 12:36:23;;;;;;;11.15;2.63;;;31.50;60.40;;;;;;4940045;29;20023;-86
2023/08/21 12:38:48;;;;;;;10.68;2.85;;;31.60;59.40;;;;;;4940118;29;20094;-87
2023/08/21 12:41:14;;;;;;;7.38;2.10;;;31.80;59.20;;;;;;4961065;29;20031;-85
2023/08/21 12:43:39;;;;;;;3.05;2.28;;;31.60;62.90;;;;;;4941889;29;20039;-86
2023/08/21 12:46:05;;;;;;;3.85;2.30;;;31.60;60.20;;;;;;4937795;29;21325;-86